sensor_id;sensor_type;location;lat;lon;timestamp;temperature;humidity
12115;DHT22;6121;49.810;6.418;2023-06-22T00:00:15;22.20;99.90
12115;DHT22;6121;49.810;6.418;2023-06-22T00:02:40;22.20;99.90
12115;DHT22;6121;49.810;6.418;2023-06-22T00:05:06;22.20;99.90
12115;DHT22;6121;49.810;6.418;2023-06-22T00:07:32;22.10;99.90
12115;DHT22;6121;49.810;6.418;2023-06-22T00:09:58;22.20;99.90
12115;DHT22;6121;49.810;6.418;2023-06-22T00:12:23;22.20;99.90
12115;DHT22;6121;49.810;6.418;2023-06-22T00:14:49;22.20;99.90
12115;DHT22;6121;49.810;6.418;2023-06-22T00:17:15;22.10;99.90
12115;DHT22;6121;49.810;6.418;2023-06-22T00:19:41;22.10;99.90
12115;DHT22;6121;49.810;6.418;2023-06-22T00:22:07;22.20;99.90
12115;DHT22;6121;49.810;6.418;2023-06-22T00:24:32;22.20;99.90
12115;DHT22;6121;49.810;6.418;2023-06-22T00:26:58;22.30;99.90
12115;DHT22;6121;49.810;6.418;2023-06-22T00:29:24;22.30;99.90
12115;DHT22;6121;49.810;6.418;2023-06-22T00:31:50;22.20;99.90
12115;DHT22;6121;49.810;6.418;2023-06-22T00:34:16;22.20;99.90
12115;DHT22;6121;49.810;6.418;2023-06-22T00:36:42;22.20;99.90
12115;DHT22;6121;49.810;6.418;2023-06-22T00:39:08;22.20;99.90
12115;DHT22;6121;49.810;6.418;2023-06-22T00:41:34;22.00;99.90
12115;DHT22;6121;49.810;6.418;2023-06-22T00:44:00;22.10;99.90
12115;DHT22;6121;49.810;6.418;2023-06-22T00:46:25;22.20;99.90
12115;DHT22;6121;49.810;6.418;2023-06-22T00:48:52;22.10;99.90
12115;DHT22;6121;49.810;6.418;2023-06-22T00:51:18;22.10;99.90
12115;DHT22;6121;49.810;6.418;2023-06-22T00:53:50;22.00;99.90
12115;DHT22;6121;49.810;6.418;2023-06-22T00:56:17;21.90;99.90
12115;DHT22;6121;49.810;6.418;2023-06-22T00:58:46;21.70;99.90
12115;DHT22;6121;49.810;6.418;2023-06-22T01:01:13;21.70;99.90
12115;DHT22;6121;49.810;6.418;2023-06-22T01:03:39;21.70;99.90
12115;DHT22;6121;49.810;6.418;2023-06-22T01:06:16;21.60;99.90
12115;DHT22;6121;49.810;6.418;2023-06-22T01:09:12;21.60;99.90
12115;DHT22;6121;49.810;6.418;2023-06-22T01:11:48;21.70;99.90
12115;DHT22;6121;49.810;6.418;2023-06-22T01:14:21;21.60;99.90
12115;DHT22;6121;49.810;6.418;2023-06-22T01:16:51;21.70;99.90
12115;DHT22;6121;49.810;6.418;2023-06-22T01:22:08;21.80;99.90
12115;DHT22;6121;49.810;6.418;2023-06-22T01:27:33;21.70;99.90
12115;DHT22;6121;49.810;6.418;2023-06-22T01:30:03;21.70;99.90
12115;DHT22;6121;49.810;6.418;2023-06-22T01:32:35;21.80;99.90
12115;DHT22;6121;49.810;6.418;2023-06-22T01:35:04;21.90;99.90
12115;DHT22;6121;49.810;6.418;2023-06-22T01:37:32;21.80;99.90
12115;DHT22;6121;49.810;6.418;2023-06-22T01:39:59;21.80;99.90
12115;DHT22;6121;49.810;6.418;2023-06-22T01:42:25;21.80;99.90
12115;DHT22;6121;49.810;6.418;2023-06-22T01:44:54;21.70;99.90
12115;DHT22;6121;49.810;6.418;2023-06-22T01:47:22;21.70;99.90
12115;DHT22;6121;49.810;6.418;2023-06-22T01:49:48;21.70;99.90
12115;DHT22;6121;49.810;6.418;2023-06-22T01:52:15;21.70;99.90
12115;DHT22;6121;49.810;6.418;2023-06-22T01:54:41;21.50;99.90
12115;DHT22;6121;49.810;6.418;2023-06-22T01:57:07;21.50;99.90
12115;DHT22;6121;49.810;6.418;2023-06-22T01:59:51;21.50;99.90
12115;DHT22;6121;49.810;6.418;2023-06-22T02:02:20;21.50;99.90
12115;DHT22;6121;49.810;6.418;2023-06-22T02:04:57;21.60;99.90
12115;DHT22;6121;49.810;6.418;2023-06-22T02:07:28;21.60;99.90
12115;DHT22;6121;49.810;6.418;2023-06-22T02:09:56;21.60;99.90
12115;DHT22;6121;49.810;6.418;2023-06-22T02:12:25;21.50;99.90
12115;DHT22;6121;49.810;6.418;2023-06-22T02:14:53;21.50;99.90
12115;DHT22;6121;49.810;6.418;2023-06-22T02:17:19;21.50;99.90
12115;DHT22;6121;49.810;6.418;2023-06-22T02:19:45;21.60;99.90
12115;DHT22;6121;49.810;6.418;2023-06-22T02:22:11;21.60;99.90
12115;DHT22;6121;49.810;6.418;2023-06-22T02:24:39;21.70;99.90
12115;DHT22;6121;49.810;6.418;2023-06-22T02:27:05;21.60;99.90
12115;DHT22;6121;49.810;6.418;2023-06-22T02:29:32;21.60;99.90
12115;DHT22;6121;49.810;6.418;2023-06-22T02:31:58;21.40;99.90
12115;DHT22;6121;49.810;6.418;2023-06-22T02:34:25;21.40;99.90
12115;DHT22;6121;49.810;6.418;2023-06-22T02:36:50;21.20;99.90
12115;DHT22;6121;49.810;6.418;2023-06-22T02:39:24;21.20;99.90
12115;DHT22;6121;49.810;6.418;2023-06-22T02:41:51;21.30;99.90
12115;DHT22;6121;49.810;6.418;2023-06-22T02:44:17;21.30;99.90
12115;DHT22;6121;49.810;6.418;2023-06-22T02:46:44;21.30;99.90
12115;DHT22;6121;49.810;6.418;2023-06-22T02:49:10;21.30;99.90
12115;DHT22;6121;49.810;6.418;2023-06-22T02:51:39;21.30;99.90
12115;DHT22;6121;49.810;6.418;2023-06-22T02:54:06;21.10;99.90
12115;DHT22;6121;49.810;6.418;2023-06-22T02:56:32;21.20;99.90
12115;DHT22;6121;49.810;6.418;2023-06-22T02:59:00;21.00;99.90
12115;DHT22;6121;49.810;6.418;2023-06-22T03:01:28;20.90;99.90
12115;DHT22;6121;49.810;6.418;2023-06-22T03:03:56;20.90;99.90
12115;DHT22;6121;49.810;6.418;2023-06-22T03:06:22;20.90;99.90
12115;DHT22;6121;49.810;6.418;2023-06-22T03:08:51;20.80;99.90
12115;DHT22;6121;49.810;6.418;2023-06-22T03:11:18;20.90;99.90
12115;DHT22;6121;49.810;6.418;2023-06-22T03:13:43;20.70;99.90
12115;DHT22;6121;49.810;6.418;2023-06-22T03:16:12;20.80;99.90
12115;DHT22;6121;49.810;6.418;2023-06-22T03:18:37;20.90;99.90
12115;DHT22;6121;49.810;6.418;2023-06-22T03:21:03;20.80;99.90
12115;DHT22;6121;49.810;6.418;2023-06-22T03:23:30;20.80;99.90
12115;DHT22;6121;49.810;6.418;2023-06-22T03:25:56;20.70;99.90
12115;DHT22;6121;49.810;6.418;2023-06-22T03:28:22;20.90;99.90
12115;DHT22;6121;49.810;6.418;2023-06-22T03:30:48;20.90;99.90
12115;DHT22;6121;49.810;6.418;2023-06-22T03:33:16;20.80;99.90
12115;DHT22;6121;49.810;6.418;2023-06-22T03:35:42;20.80;99.90
12115;DHT22;6121;49.810;6.418;2023-06-22T03:38:08;20.80;99.90
12115;DHT22;6121;49.810;6.418;2023-06-22T03:40:34;20.80;99.90
12115;DHT22;6121;49.810;6.418;2023-06-22T03:43:00;20.80;99.90
12115;DHT22;6121;49.810;6.418;2023-06-22T03:45:26;20.90;99.90
12115;DHT22;6121;49.810;6.418;2023-06-22T03:47:51;20.90;99.90
12115;DHT22;6121;49.810;6.418;2023-06-22T03:50:17;20.70;99.90
12115;DHT22;6121;49.810;6.418;2023-06-22T03:52:46;20.70;99.90
12115;DHT22;6121;49.810;6.418;2023-06-22T03:55:12;20.50;99.90
12115;DHT22;6121;49.810;6.418;2023-06-22T03:57:38;20.70;99.90
12115;DHT22;6121;49.810;6.418;2023-06-22T04:00:04;20.70;99.90
12115;DHT22;6121;49.810;6.418;2023-06-22T04:02:41;20.60;99.90
12115;DHT22;6121;49.810;6.418;2023-06-22T04:05:08;20.60;99.90
12115;DHT22;6121;49.810;6.418;2023-06-22T04:07:34;20.60;99.90
12115;DHT22;6121;49.810;6.418;2023-06-22T04:10:04;20.70;99.90
12115;DHT22;6121;49.810;6.418;2023-06-22T04:12:30;20.70;99.90
12115;DHT22;6121;49.810;6.418;2023-06-22T04:14:55;20.60;99.90
12115;DHT22;6121;49.810;6.418;2023-06-22T04:17:21;20.70;99.90
12115;DHT22;6121;49.810;6.418;2023-06-22T04:19:47;20.80;99.90
12115;DHT22;6121;49.810;6.418;2023-06-22T04:22:13;20.50;99.90
12115;DHT22;6121;49.810;6.418;2023-06-22T04:24:38;20.60;99.90
12115;DHT22;6121;49.810;6.418;2023-06-22T04:27:05;20.60;99.90
12115;DHT22;6121;49.810;6.418;2023-06-22T04:29:30;20.70;99.90
12115;DHT22;6121;49.810;6.418;2023-06-22T04:31:57;20.60;99.90
12115;DHT22;6121;49.810;6.418;2023-06-22T04:34:29;20.80;99.90
12115;DHT22;6121;49.810;6.418;2023-06-22T04:36:55;20.90;99.90
12115;DHT22;6121;49.810;6.418;2023-06-22T04:39:21;20.70;99.90
12115;DHT22;6121;49.810;6.418;2023-06-22T04:41:47;20.70;99.90
12115;DHT22;6121;49.810;6.418;2023-06-22T04:44:19;20.60;99.90
12115;DHT22;6121;49.810;6.418;2023-06-22T04:46:52;20.80;99.90
12115;DHT22;6121;49.810;6.418;2023-06-22T04:49:30;21.00;99.90
12115;DHT22;6121;49.810;6.418;2023-06-22T04:52:01;21.00;99.90
12115;DHT22;6121;49.810;6.418;2023-06-22T04:54:26;21.00;99.90
12115;DHT22;6121;49.810;6.418;2023-06-22T04:56:52;21.10;99.90
12115;DHT22;6121;49.810;6.418;2023-06-22T04:59:25;21.00;99.90
12115;DHT22;6121;49.810;6.418;2023-06-22T05:01:54;20.90;99.90
12115;DHT22;6121;49.810;6.418;2023-06-22T05:04:21;20.80;99.90
12115;DHT22;6121;49.810;6.418;2023-06-22T05:06:49;20.90;99.90
12115;DHT22;6121;49.810;6.418;2023-06-22T05:09:15;20.90;99.90
12115;DHT22;6121;49.810;6.418;2023-06-22T05:11:40;20.90;99.90
12115;DHT22;6121;49.810;6.418;2023-06-22T05:14:06;21.10;99.90
12115;DHT22;6121;49.810;6.418;2023-06-22T05:16:33;21.10;99.90
12115;DHT22;6121;49.810;6.418;2023-06-22T05:18:59;21.20;99.90
12115;DHT22;6121;49.810;6.418;2023-06-22T05:21:26;21.30;99.90
12115;DHT22;6121;49.810;6.418;2023-06-22T05:23:53;21.40;99.90
12115;DHT22;6121;49.810;6.418;2023-06-22T05:26:20;21.50;99.90
12115;DHT22;6121;49.810;6.418;2023-06-22T05:28:47;21.50;99.90
12115;DHT22;6121;49.810;6.418;2023-06-22T05:31:14;21.60;99.90
12115;DHT22;6121;49.810;6.418;2023-06-22T05:33:41;21.70;99.90
12115;DHT22;6121;49.810;6.418;2023-06-22T05:36:07;21.80;99.90
12115;DHT22;6121;49.810;6.418;2023-06-22T05:38:33;22.00;99.90
12115;DHT22;6121;49.810;6.418;2023-06-22T05:40:59;22.10;99.90
12115;DHT22;6121;49.810;6.418;2023-06-22T05:43:25;22.00;99.90
12115;DHT22;6121;49.810;6.418;2023-06-22T05:45:50;22.10;99.90
12115;DHT22;6121;49.810;6.418;2023-06-22T05:48:16;22.20;99.90
12115;DHT22;6121;49.810;6.418;2023-06-22T05:50:42;22.30;99.90
12115;DHT22;6121;49.810;6.418;2023-06-22T05:53:08;22.30;99.90
12115;DHT22;6121;49.810;6.418;2023-06-22T05:55:34;22.50;99.90
12115;DHT22;6121;49.810;6.418;2023-06-22T05:58:00;22.60;99.90
12115;DHT22;6121;49.810;6.418;2023-06-22T06:00:26;22.70;99.90
12115;DHT22;6121;49.810;6.418;2023-06-22T06:02:51;22.80;99.90
12115;DHT22;6121;49.810;6.418;2023-06-22T06:05:17;22.80;99.90
12115;DHT22;6121;49.810;6.418;2023-06-22T06:07:45;22.70;99.90
12115;DHT22;6121;49.810;6.418;2023-06-22T06:10:11;22.80;99.90
12115;DHT22;6121;49.810;6.418;2023-06-22T06:12:37;22.90;99.90
12115;DHT22;6121;49.810;6.418;2023-06-22T06:15:04;23.00;99.90
12115;DHT22;6121;49.810;6.418;2023-06-22T06:17:30;23.00;99.90
12115;DHT22;6121;49.810;6.418;2023-06-22T06:19:56;23.10;99.90
12115;DHT22;6121;49.810;6.418;2023-06-22T06:22:22;23.20;99.90
12115;DHT22;6121;49.810;6.418;2023-06-22T06:24:49;23.40;99.90
12115;DHT22;6121;49.810;6.418;2023-06-22T06:27:15;23.50;99.90
12115;DHT22;6121;49.810;6.418;2023-06-22T06:29:43;23.60;99.90
12115;DHT22;6121;49.810;6.418;2023-06-22T06:32:11;23.70;99.90
12115;DHT22;6121;49.810;6.418;2023-06-22T06:34:37;24.00;99.90
12115;DHT22;6121;49.810;6.418;2023-06-22T06:37:03;24.10;99.90
12115;DHT22;6121;49.810;6.418;2023-06-22T06:39:29;24.10;99.90
12115;DHT22;6121;49.810;6.418;2023-06-22T06:41:55;24.40;99.90
12115;DHT22;6121;49.810;6.418;2023-06-22T06:44:21;24.60;99.90
12115;DHT22;6121;49.810;6.418;2023-06-22T06:46:47;24.60;99.90
12115;DHT22;6121;49.810;6.418;2023-06-22T06:49:12;24.60;99.90
12115;DHT22;6121;49.810;6.418;2023-06-22T06:51:39;24.70;99.90
12115;DHT22;6121;49.810;6.418;2023-06-22T06:54:05;24.80;99.90
12115;DHT22;6121;49.810;6.418;2023-06-22T06:56:30;24.80;99.90
12115;DHT22;6121;49.810;6.418;2023-06-22T06:58:58;24.80;99.90
12115;DHT22;6121;49.810;6.418;2023-06-22T07:01:24;24.70;99.90
12115;DHT22;6121;49.810;6.418;2023-06-22T07:03:50;24.90;99.90
12115;DHT22;6121;49.810;6.418;2023-06-22T07:06:16;25.10;99.90
12115;DHT22;6121;49.810;6.418;2023-06-22T07:08:42;25.30;99.90
12115;DHT22;6121;49.810;6.418;2023-06-22T07:11:08;25.30;99.90
12115;DHT22;6121;49.810;6.418;2023-06-22T07:13:34;25.40;99.90
12115;DHT22;6121;49.810;6.418;2023-06-22T07:16:00;25.40;99.90
12115;DHT22;6121;49.810;6.418;2023-06-22T07:18:25;25.30;99.90
12115;DHT22;6121;49.810;6.418;2023-06-22T07:20:52;25.20;99.90
12115;DHT22;6121;49.810;6.418;2023-06-22T07:23:18;25.50;99.90
12115;DHT22;6121;49.810;6.418;2023-06-22T07:25:44;25.60;99.90
12115;DHT22;6121;49.810;6.418;2023-06-22T07:28:10;25.80;99.90
12115;DHT22;6121;49.810;6.418;2023-06-22T07:30:36;25.80;99.90
12115;DHT22;6121;49.810;6.418;2023-06-22T07:33:02;26.00;99.90
12115;DHT22;6121;49.810;6.418;2023-06-22T07:35:30;26.20;99.90
12115;DHT22;6121;49.810;6.418;2023-06-22T07:37:56;26.40;99.90
12115;DHT22;6121;49.810;6.418;2023-06-22T07:40:22;26.50;99.90
12115;DHT22;6121;49.810;6.418;2023-06-22T07:42:48;26.70;99.90
12115;DHT22;6121;49.810;6.418;2023-06-22T07:45:13;26.70;99.90
12115;DHT22;6121;49.810;6.418;2023-06-22T07:47:40;27.00;99.90
12115;DHT22;6121;49.810;6.418;2023-06-22T07:50:06;27.20;99.90
12115;DHT22;6121;49.810;6.418;2023-06-22T07:52:32;27.20;99.90
12115;DHT22;6121;49.810;6.418;2023-06-22T07:54:58;27.10;99.90
12115;DHT22;6121;49.810;6.418;2023-06-22T07:57:24;27.10;99.90
12115;DHT22;6121;49.810;6.418;2023-06-22T07:59:58;27.10;99.90
12115;DHT22;6121;49.810;6.418;2023-06-22T08:02:24;27.30;99.90
12115;DHT22;6121;49.810;6.418;2023-06-22T08:04:50;27.30;99.90
12115;DHT22;6121;49.810;6.418;2023-06-22T08:07:16;27.30;99.90
12115;DHT22;6121;49.810;6.418;2023-06-22T08:09:47;27.20;99.90
12115;DHT22;6121;49.810;6.418;2023-06-22T08:12:14;27.10;99.90
12115;DHT22;6121;49.810;6.418;2023-06-22T08:14:42;26.90;99.90
12115;DHT22;6121;49.810;6.418;2023-06-22T08:17:09;27.10;99.90
12115;DHT22;6121;49.810;6.418;2023-06-22T08:19:34;27.30;99.90
12115;DHT22;6121;49.810;6.418;2023-06-22T08:22:00;27.20;99.90
12115;DHT22;6121;49.810;6.418;2023-06-22T08:24:26;27.20;99.90
12115;DHT22;6121;49.810;6.418;2023-06-22T08:26:56;27.20;99.90
12115;DHT22;6121;49.810;6.418;2023-06-22T08:29:22;27.00;99.90
12115;DHT22;6121;49.810;6.418;2023-06-22T08:31:47;26.80;99.90
12115;DHT22;6121;49.810;6.418;2023-06-22T08:34:13;26.40;99.90
12115;DHT22;6121;49.810;6.418;2023-06-22T08:36:39;26.40;99.90
12115;DHT22;6121;49.810;6.418;2023-06-22T08:39:10;26.20;99.90
12115;DHT22;6121;49.810;6.418;2023-06-22T08:41:36;26.10;99.90
12115;DHT22;6121;49.810;6.418;2023-06-22T08:44:02;25.90;99.90
12115;DHT22;6121;49.810;6.418;2023-06-22T08:46:29;25.90;99.90
12115;DHT22;6121;49.810;6.418;2023-06-22T08:48:59;25.90;99.90
12115;DHT22;6121;49.810;6.418;2023-06-22T08:51:26;25.80;99.90
12115;DHT22;6121;49.810;6.418;2023-06-22T08:53:51;25.90;99.90
12115;DHT22;6121;49.810;6.418;2023-06-22T08:56:17;25.90;99.90
12115;DHT22;6121;49.810;6.418;2023-06-22T08:58:43;25.90;99.90
12115;DHT22;6121;49.810;6.418;2023-06-22T09:01:09;25.90;99.90
12115;DHT22;6121;49.810;6.418;2023-06-22T09:03:35;25.80;99.90
12115;DHT22;6121;49.810;6.418;2023-06-22T09:06:03;25.70;99.90
12115;DHT22;6121;49.810;6.418;2023-06-22T09:08:29;25.50;99.90
12115;DHT22;6121;49.810;6.418;2023-06-22T09:10:55;25.40;99.90
12115;DHT22;6121;49.810;6.418;2023-06-22T09:13:21;25.40;99.90
12115;DHT22;6121;49.810;6.418;2023-06-22T09:15:47;25.30;99.90
12115;DHT22;6121;49.810;6.418;2023-06-22T09:18:14;25.20;99.90
12115;DHT22;6121;49.810;6.418;2023-06-22T09:20:39;25.00;99.90
12115;DHT22;6121;49.810;6.418;2023-06-22T09:23:05;24.80;99.90
12115;DHT22;6121;49.810;6.418;2023-06-22T09:25:31;24.90;99.90
12115;DHT22;6121;49.810;6.418;2023-06-22T09:27:57;24.80;99.90
12115;DHT22;6121;49.810;6.418;2023-06-22T09:30:23;24.70;99.90
12115;DHT22;6121;49.810;6.418;2023-06-22T09:32:49;24.70;99.90
12115;DHT22;6121;49.810;6.418;2023-06-22T09:35:14;24.70;99.90
12115;DHT22;6121;49.810;6.418;2023-06-22T09:37:40;24.60;99.90
12115;DHT22;6121;49.810;6.418;2023-06-22T09:40:07;24.70;99.90
12115;DHT22;6121;49.810;6.418;2023-06-22T09:42:35;24.70;99.90
12115;DHT22;6121;49.810;6.418;2023-06-22T09:45:01;24.60;99.90
12115;DHT22;6121;49.810;6.418;2023-06-22T09:47:28;24.50;99.90
12115;DHT22;6121;49.810;6.418;2023-06-22T09:49:54;24.40;99.90
12115;DHT22;6121;49.810;6.418;2023-06-22T09:52:22;24.40;99.90
12115;DHT22;6121;49.810;6.418;2023-06-22T09:54:48;24.40;99.90
12115;DHT22;6121;49.810;6.418;2023-06-22T09:57:13;24.30;99.90
12115;DHT22;6121;49.810;6.418;2023-06-22T09:59:39;24.30;99.90
12115;DHT22;6121;49.810;6.418;2023-06-22T10:02:06;24.50;99.90
12115;DHT22;6121;49.810;6.418;2023-06-22T10:04:33;24.70;99.90
12115;DHT22;6121;49.810;6.418;2023-06-22T10:06:59;24.90;99.90
12115;DHT22;6121;49.810;6.418;2023-06-22T10:09:25;24.80;99.90
12115;DHT22;6121;49.810;6.418;2023-06-22T10:11:51;25.00;99.90
12115;DHT22;6121;49.810;6.418;2023-06-22T10:14:17;25.30;99.90
12115;DHT22;6121;49.810;6.418;2023-06-22T10:16:43;25.60;99.90
12115;DHT22;6121;49.810;6.418;2023-06-22T10:19:08;26.10;99.90
12115;DHT22;6121;49.810;6.418;2023-06-22T10:21:34;26.40;99.90
12115;DHT22;6121;49.810;6.418;2023-06-22T10:24:01;26.40;99.90
12115;DHT22;6121;49.810;6.418;2023-06-22T10:26:32;26.80;99.90
12115;DHT22;6121;49.810;6.418;2023-06-22T10:28:59;26.70;99.90
12115;DHT22;6121;49.810;6.418;2023-06-22T10:31:25;26.70;99.90
12115;DHT22;6121;49.810;6.418;2023-06-22T10:33:51;26.70;99.90
12115;DHT22;6121;49.810;6.418;2023-06-22T10:36:17;26.60;99.90
12115;DHT22;6121;49.810;6.418;2023-06-22T10:38:43;26.50;99.90
12115;DHT22;6121;49.810;6.418;2023-06-22T10:41:08;26.40;99.90
12115;DHT22;6121;49.810;6.418;2023-06-22T10:43:34;26.30;99.90
12115;DHT22;6121;49.810;6.418;2023-06-22T10:46:00;26.30;99.90
12115;DHT22;6121;49.810;6.418;2023-06-22T10:48:25;26.10;99.90
12115;DHT22;6121;49.810;6.418;2023-06-22T10:50:51;26.10;99.90
12115;DHT22;6121;49.810;6.418;2023-06-22T10:53:18;26.20;99.90
12115;DHT22;6121;49.810;6.418;2023-06-22T10:55:44;26.40;99.90
12115;DHT22;6121;49.810;6.418;2023-06-22T10:58:10;26.50;99.90
12115;DHT22;6121;49.810;6.418;2023-06-22T11:00:36;26.80;99.90
12115;DHT22;6121;49.810;6.418;2023-06-22T11:03:02;26.80;99.90
12115;DHT22;6121;49.810;6.418;2023-06-22T11:05:28;26.90;99.90
12115;DHT22;6121;49.810;6.418;2023-06-22T11:07:54;27.10;99.90
12115;DHT22;6121;49.810;6.418;2023-06-22T11:10:20;26.90;99.90
12115;DHT22;6121;49.810;6.418;2023-06-22T11:12:46;27.20;99.90
12115;DHT22;6121;49.810;6.418;2023-06-22T11:15:12;27.20;99.90
12115;DHT22;6121;49.810;6.418;2023-06-22T11:17:37;27.60;99.90
12115;DHT22;6121;49.810;6.418;2023-06-22T11:20:04;27.60;99.90
12115;DHT22;6121;49.810;6.418;2023-06-22T11:22:37;27.50;99.90
12115;DHT22;6121;49.810;6.418;2023-06-22T11:25:05;27.20;99.90
12115;DHT22;6121;49.810;6.418;2023-06-22T11:27:31;27.30;99.90
12115;DHT22;6121;49.810;6.418;2023-06-22T11:29:57;27.50;99.90
12115;DHT22;6121;49.810;6.418;2023-06-22T11:32:23;27.70;99.90
12115;DHT22;6121;49.810;6.418;2023-06-22T11:34:49;27.80;99.90
12115;DHT22;6121;49.810;6.418;2023-06-22T11:37:15;28.20;99.90
12115;DHT22;6121;49.810;6.418;2023-06-22T11:39:41;28.40;99.90
12115;DHT22;6121;49.810;6.418;2023-06-22T11:42:08;28.10;99.90
12115;DHT22;6121;49.810;6.418;2023-06-22T11:44:34;28.30;99.90
12115;DHT22;6121;49.810;6.418;2023-06-22T11:47:00;28.60;99.90
12115;DHT22;6121;49.810;6.418;2023-06-22T11:49:27;28.90;99.90
12115;DHT22;6121;49.810;6.418;2023-06-22T11:51:53;28.90;99.90
12115;DHT22;6121;49.810;6.418;2023-06-22T11:54:19;28.80;99.90
12115;DHT22;6121;49.810;6.418;2023-06-22T11:56:44;28.80;99.90
12115;DHT22;6121;49.810;6.418;2023-06-22T11:59:10;28.80;99.90
12115;DHT22;6121;49.810;6.418;2023-06-22T12:01:36;29.00;99.90
12115;DHT22;6121;49.810;6.418;2023-06-22T12:04:02;29.20;99.90
12115;DHT22;6121;49.810;6.418;2023-06-22T12:06:32;29.10;99.90
12115;DHT22;6121;49.810;6.418;2023-06-22T12:08:58;29.20;99.90
12115;DHT22;6121;49.810;6.418;2023-06-22T12:11:24;29.00;99.90
12115;DHT22;6121;49.810;6.418;2023-06-22T12:13:50;28.90;99.90
12115;DHT22;6121;49.810;6.418;2023-06-22T12:16:15;29.00;99.90
12115;DHT22;6121;49.810;6.418;2023-06-22T12:18:41;29.00;99.90
12115;DHT22;6121;49.810;6.418;2023-06-22T12:21:07;28.90;99.90
12115;DHT22;6121;49.810;6.418;2023-06-22T12:23:33;29.10;99.90
12115;DHT22;6121;49.810;6.418;2023-06-22T12:25:59;29.30;99.90
12115;DHT22;6121;49.810;6.418;2023-06-22T12:28:26;29.60;99.90
12115;DHT22;6121;49.810;6.418;2023-06-22T12:30:52;29.60;99.90
12115;DHT22;6121;49.810;6.418;2023-06-22T12:33:18;29.60;99.90
12115;DHT22;6121;49.810;6.418;2023-06-22T12:35:47;29.80;99.90
12115;DHT22;6121;49.810;6.418;2023-06-22T12:38:14;29.80;99.90
12115;DHT22;6121;49.810;6.418;2023-06-22T12:40:40;29.70;99.90
12115;DHT22;6121;49.810;6.418;2023-06-22T12:43:06;29.70;99.90
12115;DHT22;6121;49.810;6.418;2023-06-22T12:45:33;29.80;99.90
12115;DHT22;6121;49.810;6.418;2023-06-22T12:48:00;29.80;99.90
12115;DHT22;6121;49.810;6.418;2023-06-22T12:50:26;29.90;99.90
12115;DHT22;6121;49.810;6.418;2023-06-22T12:52:52;29.70;99.90
12115;DHT22;6121;49.810;6.418;2023-06-22T12:55:18;29.60;99.90
12115;DHT22;6121;49.810;6.418;2023-06-22T12:57:43;29.80;99.90
12115;DHT22;6121;49.810;6.418;2023-06-22T13:00:10;29.70;99.90
12115;DHT22;6121;49.810;6.418;2023-06-22T13:02:36;29.60;99.90
12115;DHT22;6121;49.810;6.418;2023-06-22T13:05:03;29.60;99.90
12115;DHT22;6121;49.810;6.418;2023-06-22T13:07:30;29.40;99.90
12115;DHT22;6121;49.810;6.418;2023-06-22T13:09:56;29.30;99.90
12115;DHT22;6121;49.810;6.418;2023-06-22T13:12:22;29.10;99.90
12115;DHT22;6121;49.810;6.418;2023-06-22T13:14:48;29.00;99.90
12115;DHT22;6121;49.810;6.418;2023-06-22T13:17:14;29.00;99.90
12115;DHT22;6121;49.810;6.418;2023-06-22T13:19:40;28.80;99.90
12115;DHT22;6121;49.810;6.418;2023-06-22T13:24:51;28.70;99.90
12115;DHT22;6121;49.810;6.418;2023-06-22T13:27:17;28.50;99.90
12115;DHT22;6121;49.810;6.418;2023-06-22T13:29:42;28.30;99.90
12115;DHT22;6121;49.810;6.418;2023-06-22T13:32:08;28.10;99.90
12115;DHT22;6121;49.810;6.418;2023-06-22T13:34:34;28.10;99.90
12115;DHT22;6121;49.810;6.418;2023-06-22T13:37:00;28.00;99.90
12115;DHT22;6121;49.810;6.418;2023-06-22T13:39:26;27.80;99.90
12115;DHT22;6121;49.810;6.418;2023-06-22T13:41:51;27.60;99.90
12115;DHT22;6121;49.810;6.418;2023-06-22T13:44:17;27.40;99.90
12115;DHT22;6121;49.810;6.418;2023-06-22T13:46:43;27.30;99.90
12115;DHT22;6121;49.810;6.418;2023-06-22T13:49:09;27.20;99.90
12115;DHT22;6121;49.810;6.418;2023-06-22T13:51:36;27.10;99.90
12115;DHT22;6121;49.810;6.418;2023-06-22T13:54:02;26.90;99.90
12115;DHT22;6121;49.810;6.418;2023-06-22T13:56:28;26.70;99.90
12115;DHT22;6121;49.810;6.418;2023-06-22T13:58:53;26.70;99.90
12115;DHT22;6121;49.810;6.418;2023-06-22T14:01:20;26.60;99.90
12115;DHT22;6121;49.810;6.418;2023-06-22T14:03:47;26.40;99.90
12115;DHT22;6121;49.810;6.418;2023-06-22T14:06:13;26.20;99.90
12115;DHT22;6121;49.810;6.418;2023-06-22T14:08:39;26.10;99.90
12115;DHT22;6121;49.810;6.418;2023-06-22T14:11:05;25.90;99.90
12115;DHT22;6121;49.810;6.418;2023-06-22T14:13:31;26.00;99.90
12115;DHT22;6121;49.810;6.418;2023-06-22T14:15:57;26.20;99.90
12115;DHT22;6121;49.810;6.418;2023-06-22T14:18:23;26.10;99.90
12115;DHT22;6121;49.810;6.418;2023-06-22T14:20:49;26.20;99.90
12115;DHT22;6121;49.810;6.418;2023-06-22T14:23:15;26.40;99.90
12115;DHT22;6121;49.810;6.418;2023-06-22T14:25:41;26.40;99.90
12115;DHT22;6121;49.810;6.418;2023-06-22T14:28:06;26.30;99.90
12115;DHT22;6121;49.810;6.418;2023-06-22T14:30:32;26.40;99.90
12115;DHT22;6121;49.810;6.418;2023-06-22T14:32:58;26.40;99.90
12115;DHT22;6121;49.810;6.418;2023-06-22T14:35:24;26.40;99.90
12115;DHT22;6121;49.810;6.418;2023-06-22T14:37:50;26.30;99.90
12115;DHT22;6121;49.810;6.418;2023-06-22T14:40:16;26.30;99.90
12115;DHT22;6121;49.810;6.418;2023-06-22T14:42:42;26.40;99.90
12115;DHT22;6121;49.810;6.418;2023-06-22T14:45:08;26.40;99.90
12115;DHT22;6121;49.810;6.418;2023-06-22T14:47:33;26.40;99.90
12115;DHT22;6121;49.810;6.418;2023-06-22T14:50:00;26.40;99.90
12115;DHT22;6121;49.810;6.418;2023-06-22T14:52:29;26.50;99.90
12115;DHT22;6121;49.810;6.418;2023-06-22T14:55:01;26.40;99.90
12115;DHT22;6121;49.810;6.418;2023-06-22T14:57:28;26.50;99.90
12115;DHT22;6121;49.810;6.418;2023-06-22T14:59:53;26.40;99.90
12115;DHT22;6121;49.810;6.418;2023-06-22T15:02:20;26.40;99.90
12115;DHT22;6121;49.810;6.418;2023-06-22T15:04:46;26.50;99.90
12115;DHT22;6121;49.810;6.418;2023-06-22T15:07:12;26.60;99.90
12115;DHT22;6121;49.810;6.418;2023-06-22T15:09:37;26.70;99.90
12115;DHT22;6121;49.810;6.418;2023-06-22T15:12:07;26.80;99.90
12115;DHT22;6121;49.810;6.418;2023-06-22T15:14:46;26.90;99.90
12115;DHT22;6121;49.810;6.418;2023-06-22T15:17:11;26.90;99.90
12115;DHT22;6121;49.810;6.418;2023-06-22T15:19:39;27.00;99.90
12115;DHT22;6121;49.810;6.418;2023-06-22T15:22:06;26.90;99.90
12115;DHT22;6121;49.810;6.418;2023-06-22T15:24:33;26.90;99.90
12115;DHT22;6121;49.810;6.418;2023-06-22T15:26:59;26.90;99.90
12115;DHT22;6121;49.810;6.418;2023-06-22T15:29:26;26.90;99.90
12115;DHT22;6121;49.810;6.418;2023-06-22T15:31:52;26.80;99.90
12115;DHT22;6121;49.810;6.418;2023-06-22T15:34:18;26.80;99.90
12115;DHT22;6121;49.810;6.418;2023-06-22T15:36:44;26.80;99.90
12115;DHT22;6121;49.810;6.418;2023-06-22T15:39:10;27.00;99.90
12115;DHT22;6121;49.810;6.418;2023-06-22T15:41:39;27.00;99.90
12115;DHT22;6121;49.810;6.418;2023-06-22T15:44:06;26.90;99.90
12115;DHT22;6121;49.810;6.418;2023-06-22T15:46:32;26.90;99.90
12115;DHT22;6121;49.810;6.418;2023-06-22T15:48:57;26.90;99.90